sensor_id;sensor_type;location;lat;lon;timestamp;pressure;altitude;pressure_sealevel;temperature;humidity
10646;BME280;5371;49.782;9.932;2023-03-03T00:00:05;99942.75;;;1.64;100.00
10646;BME280;5371;49.782;9.932;2023-03-03T00:02:38;99946.41;;;1.00;100.00
10646;BME280;5371;49.782;9.932;2023-03-03T00:05:06;99932.94;;;1.37;100.00
10646;BME280;5371;49.782;9.932;2023-03-03T00:07:33;99938.19;;;1.31;100.00
10646;BME280;5371;49.782;9.932;2023-03-03T00:10:00;99936.31;;;1.40;100.00
10646;BME280;5371;49.782;9.932;2023-03-03T00:12:29;99936.47;;;1.33;100.00
10646;BME280;5371;49.782;9.932;2023-03-03T00:14:57;99940.22;;;1.13;100.00
10646;BME280;5371;49.782;9.932;2023-03-03T00:17:25;99937.84;;;1.50;100.00
10646;BME280;5371;49.782;9.932;2023-03-03T00:19:53;99938.19;;;1.31;100.00
10646;BME280;5371;49.782;9.932;2023-03-03T00:22:27;99951.38;;;1.12;100.00
10646;BME280;5371;49.782;9.932;2023-03-03T00:24:59;99941.31;;;1.48;100.00
10646;BME280;5371;49.782;9.932;2023-03-03T00:27:30;99948.66;;;1.22;100.00
10646;BME280;5371;49.782;9.932;2023-03-03T00:29:59;99951.31;;;1.66;100.00
10646;BME280;5371;49.782;9.932;2023-03-03T00:32:27;99958.53;;;0.95;100.00
10646;BME280;5371;49.782;9.932;2023-03-03T00:35:01;99957.78;;;1.41;100.00
10646;BME280;5371;49.782;9.932;2023-03-03T00:37:43;99957.72;;;0.92;100.00
10646;BME280;5371;49.782;9.932;2023-03-03T00:40:19;99948.63;;;1.25;100.00
10646;BME280;5371;49.782;9.932;2023-03-03T00:42:51;99958.78;;;0.80;100.00
10646;BME280;5371;49.782;9.932;2023-03-03T00:45:30;99959.06;;;0.60;100.00
10646;BME280;5371;49.782;9.932;2023-03-03T00:48:15;99963.44;;;0.52;100.00
10646;BME280;5371;49.782;9.932;2023-03-03T00:50:45;99960.09;;;0.46;100.00
10646;BME280;5371;49.782;9.932;2023-03-03T00:53:13;99958.09;;;0.66;100.00
10646;BME280;5371;49.782;9.932;2023-03-03T00:55:42;99965.22;;;0.46;100.00
10646;BME280;5371;49.782;9.932;2023-03-03T00:58:11;99964.91;;;0.71;100.00
10646;BME280;5371;49.782;9.932;2023-03-03T01:00:42;99966.09;;;1.06;100.00
10646;BME280;5371;49.782;9.932;2023-03-03T01:03:13;99973.78;;;1.09;100.00
10646;BME280;5371;49.782;9.932;2023-03-03T01:05:40;99972.69;;;0.65;100.00
10646;BME280;5371;49.782;9.932;2023-03-03T01:08:08;99967.81;;;0.46;100.00
10646;BME280;5371;49.782;9.932;2023-03-03T01:10:38;99972.78;;;0.59;100.00
10646;BME280;5371;49.782;9.932;2023-03-03T01:13:07;99966.13;;;1.03;100.00
10646;BME280;5371;49.782;9.932;2023-03-03T01:15:35;99959.00;;;1.19;100.00
10646;BME280;5371;49.782;9.932;2023-03-03T01:18:03;99959.28;;;1.00;100.00
10646;BME280;5371;49.782;9.932;2023-03-03T01:20:30;99959.94;;;1.15;100.00
10646;BME280;5371;49.782;9.932;2023-03-03T01:22:57;99963.56;;;1.01;100.00
10646;BME280;5371;49.782;9.932;2023-03-03T01:25:24;99967.75;;;0.52;100.00
10646;BME280;5371;49.782;9.932;2023-03-03T01:27:51;99972.06;;;0.50;100.00
10646;BME280;5371;49.782;9.932;2023-03-03T01:30:18;99967.06;;;0.37;100.00
10646;BME280;5371;49.782;9.932;2023-03-03T01:32:46;99964.59;;;0.30;100.00
10646;BME280;5371;49.782;9.932;2023-03-03T01:35:14;99966.31;;;0.29;100.00
10646;BME280;5371;49.782;9.932;2023-03-03T01:37:41;99970.59;;;0.30;100.00
10646;BME280;5371;49.782;9.932;2023-03-03T01:40:13;99958.31;;;0.51;100.00
10646;BME280;5371;49.782;9.932;2023-03-03T01:42:40;99962.72;;;0.44;100.00
10646;BME280;5371;49.782;9.932;2023-03-03T01:45:14;99954.81;;;0.55;100.00
10646;BME280;5371;49.782;9.932;2023-03-03T01:47:46;99954.28;;;0.31;100.00
10646;BME280;5371;49.782;9.932;2023-03-03T01:50:29;99951.84;;;0.22;100.00
10646;BME280;5371;49.782;9.932;2023-03-03T01:53:01;99946.84;;;0.10;100.00
10646;BME280;5371;49.782;9.932;2023-03-03T01:55:32;99947.16;;;0.53;100.00
10646;BME280;5371;49.782;9.932;2023-03-03T01:58:02;99940.94;;;0.68;100.00
10646;BME280;5371;49.782;9.932;2023-03-03T02:00:30;99931.50;;;0.67;100.00
10646;BME280;5371;49.782;9.932;2023-03-03T02:02:59;99938.38;;;0.02;100.00
10646;BME280;5371;49.782;9.932;2023-03-03T02:05:27;99937.59;;;-0.03;100.00
10646;BME280;5371;49.782;9.932;2023-03-03T02:07:54;99936.00;;;0.53;100.00
10646;BME280;5371;49.782;9.932;2023-03-03T02:10:22;99944.72;;;0.44;100.00
10646;BME280;5371;49.782;9.932;2023-03-03T02:12:50;99940.63;;;0.89;100.00
10646;BME280;5371;49.782;9.932;2023-03-03T02:15:20;99939.97;;;0.12;100.00
10646;BME280;5371;49.782;9.932;2023-03-03T02:17:49;99945.31;;;-0.06;100.00
10646;BME280;5371;49.782;9.932;2023-03-03T02:20:27;99943.72;;;-0.13;100.00
10646;BME280;5371;49.782;9.932;2023-03-03T02:23:03;99936.00;;;-0.13;100.00
10646;BME280;5371;49.782;9.932;2023-03-03T02:25:38;99937.91;;;-0.30;100.00
10646;BME280;5371;49.782;9.932;2023-03-03T02:28:09;99930.91;;;-0.18;100.00
10646;BME280;5371;49.782;9.932;2023-03-03T02:30:37;99924.09;;;-0.22;100.00
10646;BME280;5371;49.782;9.932;2023-03-03T02:33:05;99934.84;;;0.11;100.00
10646;BME280;5371;49.782;9.932;2023-03-03T02:35:34;99940.19;;;0.61;100.00
10646;BME280;5371;49.782;9.932;2023-03-03T02:38:09;99943.75;;;0.51;100.00
10646;BME280;5371;49.782;9.932;2023-03-03T02:40:43;99941.56;;;0.82;100.00
10646;BME280;5371;49.782;9.932;2023-03-03T02:43:15;99947.63;;;0.80;100.00
10646;BME280;5371;49.782;9.932;2023-03-03T02:45:44;99943.13;;;0.35;100.00
10646;BME280;5371;49.782;9.932;2023-03-03T02:48:11;99941.22;;;0.47;100.00
10646;BME280;5371;49.782;9.932;2023-03-03T02:50:38;99940.47;;;0.40;100.00
10646;BME280;5371;49.782;9.932;2023-03-03T02:53:05;99937.72;;;0.52;100.00
10646;BME280;5371;49.782;9.932;2023-03-03T02:55:32;99933.97;;;0.74;100.00
10646;BME280;5371;49.782;9.932;2023-03-03T02:57:59;99935.75;;;0.71;100.00
10646;BME280;5371;49.782;9.932;2023-03-03T03:00:27;99938.03;;;0.29;100.00
10646;BME280;5371;49.782;9.932;2023-03-03T03:02:54;99940.94;;;0.68;100.00
10646;BME280;5371;49.782;9.932;2023-03-03T03:05:22;99939.75;;;0.29;100.00
10646;BME280;5371;49.782;9.932;2023-03-03T03:07:49;99944.75;;;0.41;100.00
10646;BME280;5371;49.782;9.932;2023-03-03T03:10:16;99942.53;;;0.73;100.00
10646;BME280;5371;49.782;9.932;2023-03-03T03:12:43;99943.34;;;0.79;100.00
10646;BME280;5371;49.782;9.932;2023-03-03T03:15:10;99949.13;;;0.93;100.00
10646;BME280;5371;49.782;9.932;2023-03-03T03:17:39;99955.84;;;1.01;100.00
10646;BME280;5371;49.782;9.932;2023-03-03T03:20:07;99942.03;;;1.07;100.00
10646;BME280;5371;49.782;9.932;2023-03-03T03:22:34;99956.19;;;0.80;100.00
10646;BME280;5371;49.782;9.932;2023-03-03T03:25:05;99956.19;;;0.80;100.00
10646;BME280;5371;49.782;9.932;2023-03-03T03:27:32;99957.94;;;0.15;100.00
10646;BME280;5371;49.782;9.932;2023-03-03T03:29:59;99959.44;;;0.30;100.00
10646;BME280;5371;49.782;9.932;2023-03-03T03:32:28;99953.91;;;-0.09;100.00
10646;BME280;5371;49.782;9.932;2023-03-03T03:34:56;99951.34;;;-0.07;100.00
10646;BME280;5371;49.782;9.932;2023-03-03T03:37:24;99961.03;;;-0.33;100.00
10646;BME280;5371;49.782;9.932;2023-03-03T03:39:51;99958.34;;;-0.21;100.00
10646;BME280;5371;49.782;9.932;2023-03-03T03:42:19;99951.00;;;-0.55;100.00
10646;BME280;5371;49.782;9.932;2023-03-03T03:44:46;99954.44;;;0.19;100.00
10646;BME280;5371;49.782;9.932;2023-03-03T03:47:16;99957.06;;;0.18;100.00
10646;BME280;5371;49.782;9.932;2023-03-03T03:49:43;99955.38;;;0.15;100.00
10646;BME280;5371;49.782;9.932;2023-03-03T03:52:13;99961.03;;;-0.32;100.00
10646;BME280;5371;49.782;9.932;2023-03-03T03:54:40;99959.19;;;-0.19;100.00
10646;BME280;5371;49.782;9.932;2023-03-03T03:57:07;99961.13;;;-0.43;100.00
10646;BME280;5371;49.782;9.932;2023-03-03T03:59:35;99964.03;;;-0.74;100.00
10646;BME280;5371;49.782;9.932;2023-03-03T04:02:02;99961.56;;;-0.90;100.00
10646;BME280;5371;49.782;9.932;2023-03-03T04:04:29;99964.75;;;-0.62;100.00
10646;BME280;5371;49.782;9.932;2023-03-03T04:06:56;99961.47;;;-0.76;100.00
10646;BME280;5371;49.782;9.932;2023-03-03T04:09:25;99970.72;;;-0.61;100.00
10646;BME280;5371;49.782;9.932;2023-03-03T04:11:53;99975.16;;;-0.76;100.00
10646;BME280;5371;49.782;9.932;2023-03-03T04:14:20;99965.50;;;-0.52;100.00
10646;BME280;5371;49.782;9.932;2023-03-03T04:16:47;99965.59;;;-0.60;100.00
10646;BME280;5371;49.782;9.932;2023-03-03T04:19:15;99966.56;;;-0.73;100.00
10646;BME280;5371;49.782;9.932;2023-03-03T04:21:42;99968.84;;;-0.41;100.00
10646;BME280;5371;49.782;9.932;2023-03-03T04:24:09;99975.31;;;-0.95;100.00
10646;BME280;5371;49.782;9.932;2023-03-03T04:26:39;99967.28;;;-0.56;100.00
10646;BME280;5371;49.782;9.932;2023-03-03T04:29:06;99963.41;;;-1.05;100.00
10646;BME280;5371;49.782;9.932;2023-03-03T04:31:34;99963.97;;;-0.70;100.00
10646;BME280;5371;49.782;9.932;2023-03-03T04:34:02;99971.97;;;-1.06;100.00
10646;BME280;5371;49.782;9.932;2023-03-03T04:36:30;99971.16;;;-1.15;100.00
10646;BME280;5371;49.782;9.932;2023-03-03T04:38:57;99972.59;;;-0.82;100.00
10646;BME280;5371;49.782;9.932;2023-03-03T04:41:25;99976.22;;;-1.02;100.00
10646;BME280;5371;49.782;9.932;2023-03-03T04:43:53;99982.22;;;-1.03;100.00
10646;BME280;5371;49.782;9.932;2023-03-03T04:46:20;99974.88;;;-0.47;100.00
10646;BME280;5371;49.782;9.932;2023-03-03T04:48:47;99976.34;;;-0.21;100.00
10646;BME280;5371;49.782;9.932;2023-03-03T04:51:15;99981.31;;;-0.06;100.00
10646;BME280;5371;49.782;9.932;2023-03-03T04:53:44;99982.06;;;0.02;100.00
10646;BME280;5371;49.782;9.932;2023-03-03T04:56:11;99984.47;;;0.17;100.00
10646;BME280;5371;49.782;9.932;2023-03-03T04:58:38;99988.69;;;0.21;100.00
10646;BME280;5371;49.782;9.932;2023-03-03T05:01:09;99987.00;;;0.20;100.00
10646;BME280;5371;49.782;9.932;2023-03-03T05:03:37;99987.84;;;0.21;100.00
10646;BME280;5371;49.782;9.932;2023-03-03T05:06:04;99990.41;;;0.21;100.00
10646;BME280;5371;49.782;9.932;2023-03-03T05:08:31;99986.59;;;-0.18;100.00
10646;BME280;5371;49.782;9.932;2023-03-03T05:10:58;99988.81;;;0.09;100.00
10646;BME280;5371;49.782;9.932;2023-03-03T05:13:26;99992.56;;;-0.18;100.00
10646;BME280;5371;49.782;9.932;2023-03-03T05:15:54;99993.38;;;-0.11;100.00
10646;BME280;5371;49.782;9.932;2023-03-03T05:18:24;99992.31;;;-0.82;100.00
10646;BME280;5371;49.782;9.932;2023-03-03T05:20:51;99994.97;;;-0.99;100.00
10646;BME280;5371;49.782;9.932;2023-03-03T05:23:19;99989.91;;;-1.05;100.00
10646;BME280;5371;49.782;9.932;2023-03-03T05:25:47;99994.25;;;-1.18;100.00
10646;BME280;5371;49.782;9.932;2023-03-03T05:28:14;99992.53;;;-1.16;100.00
10646;BME280;5371;49.782;9.932;2023-03-03T05:30:41;99992.34;;;-0.85;100.00
10646;BME280;5371;49.782;9.932;2023-03-03T05:33:11;99991.31;;;-0.64;100.00
10646;BME280;5371;49.782;9.932;2023-03-03T05:35:40;99996.28;;;-0.46;100.00
10646;BME280;5371;49.782;9.932;2023-03-03T05:38:07;99993.47;;;-0.20;100.00
10646;BME280;5371;49.782;9.932;2023-03-03T05:40:34;99996.22;;;-0.42;100.00
10646;BME280;5371;49.782;9.932;2023-03-03T05:43:01;100005.75;;;-0.53;100.00
10646;BME280;5371;49.782;9.932;2023-03-03T05:45:28;99998.25;;;-0.79;100.00
10646;BME280;5371;49.782;9.932;2023-03-03T05:47:55;100009.16;;;-0.51;100.00
10646;BME280;5371;49.782;9.932;2023-03-03T05:50:22;100011.28;;;-1.01;100.00
10646;BME280;5371;49.782;9.932;2023-03-03T05:52:52;100004.97;;;-0.61;100.00
10646;BME280;5371;49.782;9.932;2023-03-03T05:55:19;100015.63;;;-1.13;100.00
10646;BME280;5371;49.782;9.932;2023-03-03T05:57:46;100019.91;;;-1.13;100.00
10646;BME280;5371;49.782;9.932;2023-03-03T06:00:14;100014.44;;;-0.70;100.00
10646;BME280;5371;49.782;9.932;2023-03-03T06:02:41;100015.50;;;-0.93;100.00
10646;BME280;5371;49.782;9.932;2023-03-03T06:05:09;100015.69;;;-1.23;100.00
10646;BME280;5371;49.782;9.932;2023-03-03T06:07:36;100015.63;;;-1.11;100.00
10646;BME280;5371;49.782;9.932;2023-03-03T06:10:08;100018.06;;;-0.99;100.00
10646;BME280;5371;49.782;9.932;2023-03-03T06:12:38;100019.50;;;-0.60;100.00
10646;BME280;5371;49.782;9.932;2023-03-03T06:15:07;100023.50;;;-0.28;100.00
10646;BME280;5371;49.782;9.932;2023-03-03T06:17:35;100029.34;;;-0.13;100.00
10646;BME280;5371;49.782;9.932;2023-03-03T06:20:02;100030.19;;;-0.12;100.00
10646;BME280;5371;49.782;9.932;2023-03-03T06:22:29;100030.97;;;-0.06;100.00
10646;BME280;5371;49.782;9.932;2023-03-03T06:24:57;100028.31;;;0.02;100.00
10646;BME280;5371;49.782;9.932;2023-03-03T06:27:25;100036.09;;;-0.04;100.00
10646;BME280;5371;49.782;9.932;2023-03-03T06:29:52;100037.72;;;0.05;100.00
10646;BME280;5371;49.782;9.932;2023-03-03T06:32:19;100031.63;;;0.15;100.00
10646;BME280;5371;49.782;9.932;2023-03-03T06:34:46;100045.25;;;0.23;100.00
10646;BME280;5371;49.782;9.932;2023-03-03T06:37:13;100050.28;;;0.33;100.00
10646;BME280;5371;49.782;9.932;2023-03-03T06:39:40;100054.53;;;0.34;100.00
10646;BME280;5371;49.782;9.932;2023-03-03T06:42:07;100051.97;;;0.36;100.00
10646;BME280;5371;49.782;9.932;2023-03-03T06:44:36;100056.03;;;0.54;100.00
10646;BME280;5371;49.782;9.932;2023-03-03T06:47:03;100059.28;;;0.66;100.00
10646;BME280;5371;49.782;9.932;2023-03-03T06:49:30;100069.28;;;0.89;100.00
10646;BME280;5371;49.782;9.932;2023-03-03T06:51:58;100067.34;;;1.06;100.00
10646;BME280;5371;49.782;9.932;2023-03-03T06:54:28;100073.00;;;1.30;100.00
10646;BME280;5371;49.782;9.932;2023-03-03T06:56:59;100079.50;;;1.54;100.00
10646;BME280;5371;49.782;9.932;2023-03-03T06:59:27;100075.75;;;1.73;100.00
10646;BME280;5371;49.782;9.932;2023-03-03T07:01:56;100079.69;;;1.94;100.00
10646;BME280;5371;49.782;9.932;2023-03-03T07:04:26;100080.19;;;2.12;100.00
10646;BME280;5371;49.782;9.932;2023-03-03T07:06:56;100084.34;;;2.19;100.00
10646;BME280;5371;49.782;9.932;2023-03-03T07:09:26;100089.50;;;2.21;100.00
10646;BME280;5371;49.782;9.932;2023-03-03T07:11:56;100088.59;;;2.23;100.00
10646;BME280;5371;49.782;9.932;2023-03-03T07:14:27;100088.06;;;2.06;100.00
10646;BME280;5371;49.782;9.932;2023-03-03T07:16:59;100091.25;;;2.19;100.00
10646;BME280;5371;49.782;9.932;2023-03-03T07:19:30;100094.47;;;2.30;100.00
10646;BME280;5371;49.782;9.932;2023-03-03T07:22:00;100096.50;;;2.59;100.00
10646;BME280;5371;49.782;9.932;2023-03-03T07:24:32;100101.03;;;2.91;100.00
10646;BME280;5371;49.782;9.932;2023-03-03T07:27:08;100108.72;;;3.32;97.32
10646;BME280;5371;49.782;9.932;2023-03-03T07:29:37;100112.09;;;3.73;94.02
10646;BME280;5371;49.782;9.932;2023-03-03T07:32:19;100112.16;;;3.70;93.54
10646;BME280;5371;49.782;9.932;2023-03-03T07:34:48;100115.50;;;4.09;91.79
10646;BME280;5371;49.782;9.932;2023-03-03T07:37:28;100110.63;;;4.29;91.12
10646;BME280;5371;49.782;9.932;2023-03-03T07:39:57;100119.28;;;4.61;87.43
10646;BME280;5371;49.782;9.932;2023-03-03T07:42:25;100113.84;;;4.70;87.12
10646;BME280;5371;49.782;9.932;2023-03-03T07:45:24;100118.16;;;5.28;83.55
10646;BME280;5371;49.782;9.932;2023-03-03T07:47:58;100125.31;;;5.76;80.54
10646;BME280;5371;49.782;9.932;2023-03-03T07:50:27;100122.94;;;6.22;77.40
10646;BME280;5371;49.782;9.932;2023-03-03T07:52:55;100133.00;;;6.31;76.24
10646;BME280;5371;49.782;9.932;2023-03-03T07:55:30;100124.03;;;6.65;74.53
10646;BME280;5371;49.782;9.932;2023-03-03T07:58:17;100144.00;;;6.88;71.90
10646;BME280;5371;49.782;9.932;2023-03-03T08:03:54;100146.53;;;6.41;74.80
10646;BME280;5371;49.782;9.932;2023-03-03T08:06:38;100146.75;;;6.60;75.26
10646;BME280;5371;49.782;9.932;2023-03-03T08:09:26;100154.88;;;5.72;79.46
10646;BME280;5371;49.782;9.932;2023-03-03T08:11:57;100145.28;;;6.76;74.83
10646;BME280;5371;49.782;9.932;2023-03-03T08:14:29;100150.47;;;7.68;68.76
10646;BME280;5371;49.782;9.932;2023-03-03T08:16:57;100147.91;;;8.10;66.72
10646;BME280;5371;49.782;9.932;2023-03-03T08:19:26;100151.75;;;8.21;67.18
10646;BME280;5371;49.782;9.932;2023-03-03T08:22:00;100153.03;;;7.69;70.54
10646;BME280;5371;49.782;9.932;2023-03-03T08:24:28;100139.72;;;8.80;63.90
10646;BME280;5371;49.782;9.932;2023-03-03T08:26:55;100145.97;;;8.76;62.99
10646;BME280;5371;49.782;9.932;2023-03-03T08:29:22;100149.69;;;9.09;60.92
10646;BME280;5371;49.782;9.932;2023-03-03T08:31:49;100148.78;;;8.91;62.04
10646;BME280;5371;49.782;9.932;2023-03-03T08:34:21;100147.97;;;8.28;66.98
10646;BME280;5371;49.782;9.932;2023-03-03T08:36:51;100146.66;;;8.60;65.35
10646;BME280;5371;49.782;9.932;2023-03-03T08:39:18;100141.22;;;8.65;64.77
10646;BME280;5371;49.782;9.932;2023-03-03T08:41:46;100136.91;;;8.23;67.25
10646;BME280;5371;49.782;9.932;2023-03-03T08:44:13;100156.09;;;8.63;66.74
10646;BME280;5371;49.782;9.932;2023-03-03T08:46:40;100152.31;;;9.09;63.49
10646;BME280;5371;49.782;9.932;2023-03-03T08:49:08;100146.53;;;9.21;62.47
10646;BME280;5371;49.782;9.932;2023-03-03T08:51:37;100141.72;;;9.50;61.65
10646;BME280;5371;49.782;9.932;2023-03-03T08:54:06;100151.47;;;9.27;60.43
10646;BME280;5371;49.782;9.932;2023-03-03T08:56:33;100159.63;;;9.01;63.39
10646;BME280;5371;49.782;9.932;2023-03-03T08:59:00;100155.66;;;9.11;63.22
10646;BME280;5371;49.782;9.932;2023-03-03T09:01:27;100152.84;;;9.72;59.92
10646;BME280;5371;49.782;9.932;2023-03-03T09:03:54;100157.75;;;9.78;59.22
10646;BME280;5371;49.782;9.932;2023-03-03T09:06:21;100154.97;;;9.64;59.50
10646;BME280;5371;49.782;9.932;2023-03-03T09:08:48;100161.59;;;9.71;59.93
10646;BME280;5371;49.782;9.932;2023-03-03T09:11:23;100149.47;;;9.32;61.34
10646;BME280;5371;49.782;9.932;2023-03-03T09:13:53;100164.69;;;9.79;60.08
10646;BME280;5371;49.782;9.932;2023-03-03T09:16:26;100165.25;;;9.67;61.35
10646;BME280;5371;49.782;9.932;2023-03-03T09:18:57;100157.72;;;9.61;61.12
10646;BME280;5371;49.782;9.932;2023-03-03T09:21:29;100166.38;;;9.80;58.89
10646;BME280;5371;49.782;9.932;2023-03-03T09:23:58;100166.72;;;9.91;59.71
10646;BME280;5371;49.782;9.932;2023-03-03T09:26:29;100170.28;;;7.27;72.71
10646;BME280;5371;49.782;9.932;2023-03-03T09:29:06;100166.94;;;9.68;61.54
10646;BME280;5371;49.782;9.932;2023-03-03T09:31:38;100160.91;;;8.72;67.53
10646;BME280;5371;49.782;9.932;2023-03-03T09:34:17;100153.84;;;10.40;58.41
10646;BME280;5371;49.782;9.932;2023-03-03T09:36:45;100157.16;;;10.94;55.06
10646;BME280;5371;49.782;9.932;2023-03-03T09:39:17;100160.44;;;10.81;55.22
10646;BME280;5371;49.782;9.932;2023-03-03T09:42:03;100156.72;;;10.35;57.73
10646;BME280;5371;49.782;9.932;2023-03-03T09:47:50;100162.63;;;11.22;53.96
10646;BME280;5371;49.782;9.932;2023-03-03T09:50:27;100150.47;;;11.52;52.86
10646;BME280;5371;49.782;9.932;2023-03-03T09:53:08;100153.19;;;10.86;55.72
10646;BME280;5371;49.782;9.932;2023-03-03T09:55:47;100153.88;;;11.54;51.96
10646;BME280;5371;49.782;9.932;2023-03-03T09:58:45;100149.78;;;11.17;53.07
10646;BME280;5371;49.782;9.932;2023-03-03T10:01:32;100154.72;;;11.55;52.64
10646;BME280;5371;49.782;9.932;2023-03-03T10:04:17;100156.88;;;11.31;52.34
10646;BME280;5371;49.782;9.932;2023-03-03T10:06:53;100154.63;;;11.88;51.66
10646;BME280;5371;49.782;9.932;2023-03-03T10:12:26;100149.72;;;13.00;47.49
10646;BME280;5371;49.782;9.932;2023-03-03T10:15:06;100160.84;;;12.61;47.71
10646;BME280;5371;49.782;9.932;2023-03-03T10:17:47;100152.53;;;12.38;48.99
10646;BME280;5371;49.782;9.932;2023-03-03T10:20:25;100159.06;;;12.61;48.64
10646;BME280;5371;49.782;9.932;2023-03-03T10:23:05;100159.34;;;12.85;47.63
10646;BME280;5371;49.782;9.932;2023-03-03T10:25:38;100158.47;;;13.15;47.11
10646;BME280;5371;49.782;9.932;2023-03-03T10:28:24;100164.97;;;12.05;51.59
10646;BME280;5371;49.782;9.932;2023-03-03T10:31:05;100164.91;;;13.09;47.12
10646;BME280;5371;49.782;9.932;2023-03-03T10:33:44;100163.72;;;13.70;45.15
10646;BME280;5371;49.782;9.932;2023-03-03T10:36:22;100161.28;;;12.53;47.08
10646;BME280;5371;49.782;9.932;2023-03-03T10:39:02;100162.19;;;13.10;46.94
10646;BME280;5371;49.782;9.932;2023-03-03T10:41:42;100177.25;;;14.17;43.82
10646;BME280;5371;49.782;9.932;2023-03-03T10:44:52;100177.09;;;13.10;47.12
10646;BME280;5371;49.782;9.932;2023-03-03T10:47:34;100188.31;;;9.76;59.34
10646;BME280;5371;49.782;9.932;2023-03-03T10:50:13;100176.50;;;13.05;48.40
10646;BME280;5371;49.782;9.932;2023-03-03T10:52:46;100180.63;;;10.95;53.66
10646;BME280;5371;49.782;9.932;2023-03-03T10:55:37;100173.38;;;13.69;44.79
10646;BME280;5371;49.782;9.932;2023-03-03T10:58:25;100165.25;;;12.30;49.05
10646;BME280;5371;49.782;9.932;2023-03-03T11:01:00;100163.38;;;12.77;48.36
10646;BME280;5371;49.782;9.932;2023-03-03T11:03:46;100173.06;;;13.33;46.15
10646;BME280;5371;49.782;9.932;2023-03-03T11:06:22;100175.25;;;12.68;47.46
10646;BME280;5371;49.782;9.932;2023-03-03T11:08:53;100164.47;;;13.17;46.90
10646;BME280;5371;49.782;9.932;2023-03-03T11:11:30;100163.63;;;13.16;46.79
10646;BME280;5371;49.782;9.932;2023-03-03T11:14:07;100156.28;;;13.76;45.64
10646;BME280;5371;49.782;9.932;2023-03-03T11:16:48;100152.84;;;13.62;45.06
10646;BME280;5371;49.782;9.932;2023-03-03T11:19:39;100157.25;;;13.61;44.77
10646;BME280;5371;49.782;9.932;2023-03-03T11:22:23;100155.38;;;11.90;51.92
10646;BME280;5371;49.782;9.932;2023-03-03T11:25:02;100150.16;;;13.90;45.01
10646;BME280;5371;49.782;9.932;2023-03-03T11:28:06;100143.06;;;13.37;45.59
10646;BME280;5371;49.782;9.932;2023-03-03T11:30:52;100139.56;;;13.51;44.89
10646;BME280;5371;49.782;9.932;2023-03-03T11:33:33;100134.03;;;13.41;45.21
10646;BME280;5371;49.782;9.932;2023-03-03T11:36:09;100140.22;;;13.81;44.08
10646;BME280;5371;49.782;9.932;2023-03-03T11:38:45;100130.38;;;12.58;47.50
10646;BME280;5371;49.782;9.932;2023-03-03T11:41:31;100134.56;;;12.91;47.34
10646;BME280;5371;49.782;9.932;2023-03-03T11:44:07;100137.81;;;13.37;45.03
10646;BME280;5371;49.782;9.932;2023-03-03T11:46:39;100130.00;;;12.06;47.47
10646;BME280;5371;49.782;9.932;2023-03-03T11:49:14;100124.91;;;13.20;45.66
10646;BME280;5371;49.782;9.932;2023-03-03T11:51:49;100118.47;;;13.79;42.93
10646;BME280;5371;49.782;9.932;2023-03-03T11:54:22;100110.22;;;13.98;43.22
10646;BME280;5371;49.782;9.932;2023-03-03T11:56:56;100113.13;;;14.20;41.12
10646;BME280;5371;49.782;9.932;2023-03-03T11:59:50;100104.47;;;12.54;45.20
10646;BME280;5371;49.782;9.932;2023-03-03T12:02:43;100099.69;;;14.50;41.60
10646;BME280;5371;49.782;9.932;2023-03-03T12:05:14;100108.06;;;14.17;42.51
10646;BME280;5371;49.782;9.932;2023-03-03T12:07:54;100098.41;;;12.23;48.23
10646;BME280;5371;49.782;9.932;2023-03-03T12:10:27;100092.75;;;14.36;42.18
10646;BME280;5371;49.782;9.932;2023-03-03T12:13:03;100093.34;;;12.64;45.33
10646;BME280;5371;49.782;9.932;2023-03-03T12:15:38;100087.66;;;14.33;41.57
10646;BME280;5371;49.782;9.932;2023-03-03T12:18:39;100077.59;;;14.90;40.24
10646;BME280;5371;49.782;9.932;2023-03-03T12:21:22;100075.41;;;14.46;40.87
10646;BME280;5371;49.782;9.932;2023-03-03T12:26:51;100068.78;;;14.53;41.22
10646;BME280;5371;49.782;9.932;2023-03-03T12:29:25;100072.53;;;12.03;47.06
10646;BME280;5371;49.782;9.932;2023-03-03T12:32:01;100058.75;;;12.86;44.85
10646;BME280;5371;49.782;9.932;2023-03-03T12:34:35;100052.19;;;12.51;46.12
10646;BME280;5371;49.782;9.932;2023-03-03T12:37:15;100045.66;;;12.72;46.27
10646;BME280;5371;49.782;9.932;2023-03-03T12:39:54;100052.47;;;12.60;46.48
10646;BME280;5371;49.782;9.932;2023-03-03T12:42:36;100049.16;;;12.14;47.46
10646;BME280;5371;49.782;9.932;2023-03-03T12:45:17;100042.69;;;11.76;48.71
10646;BME280;5371;49.782;9.932;2023-03-03T12:47:53;100044.03;;;11.21;49.94
10646;BME280;5371;49.782;9.932;2023-03-03T12:50:35;100042.88;;;10.12;53.82
10646;BME280;5371;49.782;9.932;2023-03-03T12:53:17;100055.72;;;9.11;57.29
10646;BME280;5371;49.782;9.932;2023-03-03T12:55:52;100047.00;;;8.93;60.30
10646;BME280;5371;49.782;9.932;2023-03-03T12:58:28;100046.22;;;9.64;57.55
10646;BME280;5371;49.782;9.932;2023-03-03T13:01:04;100041.50;;;8.61;63.29
10646;BME280;5371;49.782;9.932;2023-03-03T13:03:39;100025.31;;;9.99;57.19
10646;BME280;5371;49.782;9.932;2023-03-03T13:06:14;100035.44;;;9.53;59.49
10646;BME280;5371;49.782;9.932;2023-03-03T13:08:55;100024.69;;;10.11;56.82
10646;BME280;5371;49.782;9.932;2023-03-03T13:11:38;100020.94;;;10.49;55.12
10646;BME280;5371;49.782;9.932;2023-03-03T13:14:15;100019.09;;;10.52;54.62
10646;BME280;5371;49.782;9.932;2023-03-03T13:16:48;100018.16;;;10.37;55.76
10646;BME280;5371;49.782;9.932;2023-03-03T13:19:25;100020.78;;;9.68;57.38
10646;BME280;5371;49.782;9.932;2023-03-03T13:21:56;100012.19;;;10.00;55.84
10646;BME280;5371;49.782;9.932;2023-03-03T13:24:28;100019.44;;;9.25;59.87
10646;BME280;5371;49.782;9.932;2023-03-03T13:27:04;100010.72;;;9.60;59.83
10646;BME280;5371;49.782;9.932;2023-03-03T13:29:36;100007.75;;;10.20;56.61
10646;BME280;5371;49.782;9.932;2023-03-03T13:32:11;100007.09;;;10.32;55.08
10646;BME280;5371;49.782;9.932;2023-03-03T13:34:47;100010.69;;;10.62;55.16
10646;BME280;5371;49.782;9.932;2023-03-03T13:37:20;100013.53;;;10.42;56.39
10646;BME280;5371;49.782;9.932;2023-03-03T13:39:55;100007.78;;;10.35;54.67
10646;BME280;5371;49.782;9.932;2023-03-03T13:42:30;100005.81;;;10.72;52.76